Time;durP1;ratioP1;P1;durP2;ratioP2;P2;SDS_P1;SDS_P2;PMS_P1;PMS_P2;Temp;Humidity;BMP_temperature;BMP_pressure;BME280_temperature;BME280_humidity;BME280_pressure;Samples;Min_cycle;Max_cycle;Signal;HPM_P1;HPM_P2
2022/04/19 00:02:26;;;;;;;9.65;5.80;;;;;;;;;;10482527;28;20439;-89
2022/04/19 00:07:28;;;;;;;5.75;4.45;;;;;;;;;;10499753;28;20507;-89
2022/04/19 00:12:31;;;;;;;14.40;7.20;;;;;;;;;;10526672;28;20432;-89
2022/04/19 00:17:34;;;;;;;16.88;7.10;;;;;;;;;;10526558;28;20497;-90
2022/04/19 00:22:36;;;;;;;9.60;5.60;;;;;;;;;;10524756;28;21151;-89
2022/04/19 00:27:39;;;;;;;7.70;4.78;;;;;;;;;;10525522;28;20486;-89
2022/04/19 00:32:41;;;;;;;9.03;5.10;;;;;;;;;;10526765;28;20404;-89
2022/04/19 00:37:43;;;;;;;7.60;6.67;;;;;;;;;;10526322;28;20401;-89
2022/04/19 00:42:47;;;;;;;8.97;7.77;;;;;;;;;;10525262;28;20843;-89
2022/04/19 00:47:49;;;;;;;10.30;8.23;;;;;;;;;;10524854;28;20533;-90
2022/04/19 00:52:52;;;;;;;9.88;8.23;;;;;;;;;;10525851;28;20413;-89
2022/04/19 00:57:56;;;;;;;12.38;8.80;;;;;;;;;;10521610;28;20518;-89
2022/04/19 01:02:58;;;;;;;9.25;8.23;;;;;;;;;;10515291;28;20527;-88
2022/04/19 01:08:00;;;;;;;10.10;8.20;;;;;;;;;;10523263;28;21182;-89
2022/04/19 01:13:19;;;;;;;10.45;8.40;;;;;;;;;;10523907;28;20808;-89
2022/04/19 01:18:24;;;;;;;10.90;8.53;;;;;;;;;;10525822;28;20888;-89
2022/04/19 01:23:29;;;;;;;10.15;8.10;;;;;;;;;;10525190;28;20481;-89
2022/04/19 01:28:31;;;;;;;10.85;8.38;;;;;;;;;;10520616;28;20412;-89
2022/04/19 01:33:33;;;;;;;11.23;8.40;;;;;;;;;;10524283;28;20501;-89
2022/04/19 01:38:36;;;;;;;11.70;8.57;;;;;;;;;;10518667;28;20497;-89
2022/04/19 01:43:38;;;;;;;11.70;8.57;;;;;;;;;;10521923;28;20542;-89
2022/04/19 01:48:40;;;;;;;13.53;9.07;;;;;;;;;;10524546;28;20436;-87
2022/04/19 01:53:43;;;;;;;12.77;8.60;;;;;;;;;;10523713;28;20534;-89
2022/04/19 01:58:46;;;;;;;12.82;9.25;;;;;;;;;;10524282;28;20955;-89
2022/04/19 02:03:47;;;;;;;13.05;9.80;;;;;;;;;;10524948;28;20907;-90
2022/04/19 02:08:51;;;;;;;12.90;9.70;;;;;;;;;;10525149;28;20471;-90
2022/04/19 02:13:53;;;;;;;11.82;9.30;;;;;;;;;;10524832;28;20853;-89
2022/04/19 02:18:55;;;;;;;13.40;9.25;;;;;;;;;;10526491;28;20881;-89
2022/04/19 02:23:58;;;;;;;13.63;8.20;;;;;;;;;;10531780;28;20409;-89
2022/04/19 02:29:00;;;;;;;11.10;8.17;;;;;;;;;;10533014;28;20826;-89
2022/04/19 02:34:02;;;;;;;12.48;8.48;;;;;;;;;;10527043;28;20442;-87
2022/04/19 02:39:05;;;;;;;14.20;9.18;;;;;;;;;;10488020;28;20607;-90
2022/04/19 02:44:08;;;;;;;14.13;9.25;;;;;;;;;;10489877;28;20406;-88
2022/04/19 02:49:10;;;;;;;14.30;8.85;;;;;;;;;;10497672;28;20468;-84
2022/04/19 02:54:13;;;;;;;13.43;9.20;;;;;;;;;;10509537;28;20419;-89
2022/04/19 02:59:15;;;;;;;11.43;8.50;;;;;;;;;;10489451;28;21084;-89
2022/04/19 03:04:18;;;;;;;12.30;8.20;;;;;;;;;;10488956;28;20447;-89
2022/04/19 03:09:21;;;;;;;11.57;7.97;;;;;;;;;;10488775;28;20961;-90
2022/04/19 03:14:25;;;;;;;18.13;9.02;;;;;;;;;;10488851;28;20477;-89
2022/04/19 03:19:27;;;;;;;11.80;7.85;;;;;;;;;;10487977;28;20920;-89
2022/04/19 03:29:52;;;;;;;9.02;7.32;;;;;;;;;;10488497;28;20390;-89
2022/04/19 03:34:54;;;;;;;10.82;7.80;;;;;;;;;;10488686;28;20406;-89
2022/04/19 03:39:57;;;;;;;11.43;7.97;;;;;;;;;;10489102;28;20429;-90
2022/04/19 03:44:59;;;;;;;11.10;7.30;;;;;;;;;;10510397;28;20829;-90
2022/04/19 03:50:01;;;;;;;10.47;7.37;;;;;;;;;;10530627;28;20513;-90
2022/04/19 03:55:06;;;;;;;10.10;7.60;;;;;;;;;;10530060;28;20400;-90
2022/04/19 04:00:08;;;;;;;10.50;7.93;;;;;;;;;;10530520;28;20408;-91
2022/04/19 04:05:10;;;;;;;10.32;7.60;;;;;;;;;;10493139;28;20462;-90
2022/04/19 04:10:14;;;;;;;12.75;8.40;;;;;;;;;;10527052;28;20794;-90
2022/04/19 04:15:16;;;;;;;12.60;8.63;;;;;;;;;;10529118;28;20409;-90
2022/04/19 04:20:18;;;;;;;11.55;8.27;;;;;;;;;;10528790;28;20499;-90
2022/04/19 04:25:21;;;;;;;11.55;8.15;;;;;;;;;;10528210;28;20512;-90
2022/04/19 04:30:23;;;;;;;12.30;8.25;;;;;;;;;;10527914;28;20443;-90
2022/04/19 04:35:25;;;;;;;10.83;8.40;;;;;;;;;;10528504;28;20408;-89
2022/04/19 04:40:28;;;;;;;10.90;8.53;;;;;;;;;;10528308;28;20539;-90
2022/04/19 04:45:30;;;;;;;11.15;8.82;;;;;;;;;;10523631;28;20423;-90
2022/04/19 04:50:32;;;;;;;11.52;8.32;;;;;;;;;;10527957;28;20405;-89
2022/04/19 04:55:35;;;;;;;10.90;7.80;;;;;;;;;;10528189;28;20907;-90
2022/04/19 05:00:37;;;;;;;11.45;8.00;;;;;;;;;;10527890;28;20413;-89
2022/04/19 05:05:39;;;;;;;10.27;7.63;;;;;;;;;;10527535;28;20846;-90
2022/04/19 05:10:43;;;;;;;9.63;7.35;;;;;;;;;;10526961;28;20412;-90
2022/04/19 05:15:44;;;;;;;9.18;7.68;;;;;;;;;;10527479;28;20922;-90
2022/04/19 05:20:46;;;;;;;12.30;7.97;;;;;;;;;;10527606;28;20479;-91
2022/04/19 05:25:50;;;;;;;9.02;7.07;;;;;;;;;;10439822;28;20457;-90
2022/04/19 05:30:52;;;;;;;10.10;7.45;;;;;;;;;;10414956;28;20533;-90
2022/04/19 05:35:54;;;;;;;9.40;7.53;;;;;;;;;;10444126;28;20827;-90
2022/04/19 05:40:58;;;;;;;11.93;8.52;;;;;;;;;;10436897;28;20462;-90
2022/04/19 05:46:00;;;;;;;10.55;8.23;;;;;;;;;;10429144;28;20428;-89
2022/04/19 05:51:02;;;;;;;14.70;8.70;;;;;;;;;;10446151;28;20420;-90
2022/04/19 05:56:06;;;;;;;21.13;9.80;;;;;;;;;;10453436;28;20406;-89
2022/04/19 06:01:07;;;;;;;12.68;8.57;;;;;;;;;;10446167;28;20407;-90
2022/04/19 06:06:09;;;;;;;11.38;8.35;;;;;;;;;;10437662;28;20516;-89
2022/04/19 06:11:13;;;;;;;11.43;8.73;;;;;;;;;;10435107;28;20819;-86
2022/04/19 06:16:15;;;;;;;14.35;9.05;;;;;;;;;;10441847;28;20558;-96
2022/04/19 06:21:17;;;;;;;16.27;8.80;;;;;;;;;;10461773;28;20945;-96
2022/04/19 06:26:20;;;;;;;11.57;8.20;;;;;;;;;;10536878;28;20499;-96
2022/04/19 06:31:22;;;;;;;13.38;8.30;;;;;;;;;;10528868;28;20435;-96
2022/04/19 06:36:31;;;;;;;11.75;8.02;;;;;;;;;;10536001;28;20465;-96
2022/04/19 06:41:36;;;;;;;10.07;7.90;;;;;;;;;;10492061;28;20430;-96
2022/04/19 06:46:38;;;;;;;11.80;7.68;;;;;;;;;;10483189;28;20810;-96
2022/04/19 06:51:40;;;;;;;12.93;7.78;;;;;;;;;;10478020;28;20471;-96
2022/04/19 06:56:48;;;;;;;11.93;8.23;;;;;;;;;;10468966;28;20435;-96
2022/04/19 07:01:50;;;;;;;10.65;8.07;;;;;;;;;;10472413;28;20414;-96
2022/04/19 07:06:52;;;;;;;12.02;8.98;;;;;;;;;;10506505;28;20412;-96
2022/04/19 07:11:57;;;;;;;11.70;8.33;;;;;;;;;;10521196;28;20811;-96
2022/04/19 07:16:59;;;;;;;17.73;9.02;;;;;;;;;;10489642;28;20417;-96
2022/04/19 07:27:22;;;;;;;16.63;10.00;;;;;;;;;;10462401;28;20407;-89
2022/04/19 07:32:25;;;;;;;22.83;9.50;;;;;;;;;;10488720;28;20415;-90
2022/04/19 07:37:29;;;;;;;16.05;8.90;;;;;;;;;;10477427;28;20412;-90
2022/04/19 07:42:33;;;;;;;13.45;8.48;;;;;;;;;;10479169;28;20409;-89
2022/04/19 07:47:35;;;;;;;11.97;8.03;;;;;;;;;;10471580;28;20451;-89
2022/04/19 07:52:37;;;;;;;7.97;6.43;;;;;;;;;;10478015;28;21047;-89
2022/04/19 07:57:41;;;;;;;11.20;6.90;;;;;;;;;;10476437;28;20402;-91
2022/04/19 08:02:43;;;;;;;7.20;6.20;;;;;;;;;;10481661;28;20722;-91
2022/04/19 08:07:48;;;;;;;5.60;5.07;;;;;;;;;;10475787;28;20460;-91
2022/04/19 08:12:52;;;;;;;3.88;2.72;;;;;;;;;;10483782;28;20499;-91
2022/04/19 08:17:55;;;;;;;5.10;2.95;;;;;;;;;;10486701;28;20448;-91
2022/04/19 08:22:57;;;;;;;4.35;3.00;;;;;;;;;;10471190;28;20404;-87
2022/04/19 08:28:01;;;;;;;3.03;2.63;;;;;;;;;;10455706;28;20415;-90
2022/04/19 08:33:03;;;;;;;3.75;2.83;;;;;;;;;;10461845;28;20522;-90
2022/04/19 08:38:05;;;;;;;3.78;3.10;;;;;;;;;;10472232;28;20439;-88
2022/04/19 08:43:11;;;;;;;4.20;3.30;;;;;;;;;;10473828;28;20504;-88
2022/04/19 08:48:15;;;;;;;5.03;3.00;;;;;;;;;;10487650;28;20847;-88
2022/04/19 08:58:40;;;;;;;4.55;2.90;;;;;;;;;;10470284;28;20399;-88
2022/04/19 09:03:42;;;;;;;4.75;2.83;;;;;;;;;;10469798;28;20404;-89
2022/04/19 09:09:08;;;;;;;3.72;2.88;;;;;;;;;;10466441;28;20499;-91
2022/04/19 09:14:12;;;;;;;4.05;3.08;;;;;;;;;;10478656;28;20808;-89
2022/04/19 09:19:28;;;;;;;3.42;3.05;;;;;;;;;;10483580;28;20494;-89
2022/04/19 09:24:31;;;;;;;4.03;3.63;;;;;;;;;;10484046;28;20414;-91
2022/04/19 09:29:34;;;;;;;4.27;3.30;;;;;;;;;;10489947;28;20487;-88
2022/04/19 09:34:37;;;;;;;4.40;3.57;;;;;;;;;;10510830;28;20436;-91
2022/04/19 09:39:39;;;;;;;3.33;3.03;;;;;;;;;;10492741;28;20524;-90
2022/04/19 09:44:44;;;;;;;3.72;3.22;;;;;;;;;;10490471;28;20398;-88
2022/04/19 09:49:48;;;;;;;4.18;3.50;;;;;;;;;;10488817;28;20817;-90
2022/04/19 09:55:00;;;;;;;4.65;3.53;;;;;;;;;;10495749;28;20479;-90
2022/04/19 10:00:06;;;;;;;5.63;4.30;;;;;;;;;;10510581;28;20487;-87
2022/04/19 10:10:29;;;;;;;4.75;3.70;;;;;;;;;;10510269;28;20381;-89
2022/04/19 10:15:35;;;;;;;4.57;4.03;;;;;;;;;;10492033;28;20408;-91
2022/04/19 10:20:40;;;;;;;4.57;3.77;;;;;;;;;;10482658;28;20428;-88
2022/04/19 10:25:48;;;;;;;5.00;4.03;;;;;;;;;;10482733;28;20411;-91
2022/04/19 10:30:53;;;;;;;4.95;4.25;;;;;;;;;;10472373;28;20403;-88
2022/04/19 10:36:12;;;;;;;6.65;4.30;;;;;;;;;;10506429;28;20404;-90
2022/04/19 10:41:48;;;;;;;9.90;4.43;;;;;;;;;;10521534;28;20966;-89
2022/04/19 10:47:07;;;;;;;5.82;4.82;;;;;;;;;;10519639;28;20904;-89
2022/04/19 10:52:43;;;;;;;5.53;4.93;;;;;;;;;;10513991;28;20849;-90
2022/04/19 11:03:11;;;;;;;5.70;4.85;;;;;;;;;;10486601;28;20477;-89
2022/04/19 11:08:24;;;;;;;5.32;4.00;;;;;;;;;;10497024;28;20412;-89
2022/04/19 11:13:28;;;;;;;4.40;4.00;;;;;;;;;;10495906;28;20499;-90
2022/04/19 11:18:32;;;;;;;5.90;4.27;;;;;;;;;;10482861;28;20421;-89
2022/04/19 11:23:43;;;;;;;6.63;4.00;;;;;;;;;;10465993;28;20452;-90
2022/04/19 11:29:18;;;;;;;5.68;4.72;;;;;;;;;;10463168;28;20422;-90
2022/04/19 11:34:21;;;;;;;6.13;4.60;;;;;;;;;;10469125;28;20438;-88
2022/04/19 11:50:01;;;;;;;5.13;4.30;;;;;;;;;;10478767;28;20411;-91
2022/04/19 11:55:03;;;;;;;6.72;4.28;;;;;;;;;;10477550;28;20428;-88
2022/04/19 12:00:07;;;;;;;5.78;4.55;;;;;;;;;;10466246;28;20427;-92
2022/04/19 12:05:25;;;;;;;5.45;4.95;;;;;;;;;;10483317;28;20469;-92
2022/04/19 12:10:28;;;;;;;6.15;4.45;;;;;;;;;;10481895;28;20422;-92
2022/04/19 12:15:40;;;;;;;5.95;4.50;;;;;;;;;;10469354;28;20418;-93
2022/04/19 12:20:44;;;;;;;7.82;4.60;;;;;;;;;;10476676;28;20410;-94
2022/04/19 12:26:02;;;;;;;5.93;4.60;;;;;;;;;;10475782;28;20944;-93
2022/04/19 12:31:05;;;;;;;5.97;4.70;;;;;;;;;;10475664;28;20437;-93
2022/04/19 12:36:13;;;;;;;4.93;4.28;;;;;;;;;;10477124;28;20410;-94
2022/04/19 12:41:16;;;;;;;5.38;4.20;;;;;;;;;;10477877;28;20417;-93
2022/04/19 12:46:22;;;;;;;4.60;3.97;;;;;;;;;;10474739;28;20473;-93
2022/04/19 12:51:26;;;;;;;4.78;4.00;;;;;;;;;;10477521;28;20414;-94
2022/04/19 12:56:28;;;;;;;5.63;3.85;;;;;;;;;;10480353;28;20927;-93
2022/04/19 13:01:30;;;;;;;7.17;4.63;;;;;;;;;;10477116;28;20487;-94
2022/04/19 13:17:14;;;;;;;5.07;4.30;;;;;;;;;;10476880;28;20430;-94
2022/04/19 13:22:19;;;;;;;5.20;4.70;;;;;;;;;;10478809;28;20442;-93
2022/04/19 13:27:21;;;;;;;5.38;4.20;;;;;;;;;;10477310;28;20423;-92
2022/04/19 13:32:23;;;;;;;5.57;4.10;;;;;;;;;;10479577;28;20397;-92
2022/04/19 13:42:46;;;;;;;5.55;3.70;;;;;;;;;;10480721;28;20382;-92
2022/04/19 13:47:48;;;;;;;5.05;3.70;;;;;;;;;;10474444;28;20572;-92
2022/04/19 13:52:52;;;;;;;5.05;3.55;;;;;;;;;;10476926;28;20425;-89
2022/04/19 13:57:55;;;;;;;6.70;4.53;;;;;;;;;;10474920;28;20414;-93
2022/04/19 14:02:57;;;;;;;5.55;4.38;;;;;;;;;;10478301;28;20759;-93
2022/04/19 14:08:01;;;;;;;5.37;4.30;;;;;;;;;;10459943;28;20513;-92
2022/04/19 14:13:03;;;;;;;7.18;3.78;;;;;;;;;;10475415;28;20409;-92
2022/04/19 14:18:05;;;;;;;7.15;4.40;;;;;;;;;;10484938;28;20406;-95
2022/04/19 14:23:09;;;;;;;6.83;4.60;;;;;;;;;;10468146;28;20919;-94
2022/04/19 14:28:11;;;;;;;5.57;4.30;;;;;;;;;;10484506;28;20460;-94
2022/04/19 14:33:18;;;;;;;6.40;4.80;;;;;;;;;;10479228;28;20488;-94
2022/04/19 14:38:24;;;;;;;6.45;4.55;;;;;;;;;;10476872;28;20438;-94
2022/04/19 14:43:26;;;;;;;5.27;3.90;;;;;;;;;;10472861;28;20533;-94
2022/04/19 14:48:28;;;;;;;5.80;3.88;;;;;;;;;;10501203;28;20452;-93
2022/04/19 14:53:32;;;;;;;5.30;3.97;;;;;;;;;;10519396;28;20410;-95
2022/04/19 14:58:34;;;;;;;6.25;3.90;;;;;;;;;;10500078;28;20429;-94
2022/04/19 15:03:37;;;;;;;6.07;4.60;;;;;;;;;;10476937;28;20497;-95
2022/04/19 15:08:41;;;;;;;7.80;4.20;;;;;;;;;;10475871;28;20414;-94
2022/04/19 15:13:44;;;;;;;6.07;4.15;;;;;;;;;;10479576;28;20529;-93
2022/04/19 15:18:46;;;;;;;4.70;3.85;;;;;;;;;;10460896;28;20398;-93
2022/04/19 15:23:50;;;;;;;5.93;3.60;;;;;;;;;;10479621;28;20513;-93
2022/04/19 15:28:53;;;;;;;3.72;3.40;;;;;;;;;;10472992;28;20454;-94
2022/04/19 15:33:55;;;;;;;4.00;3.22;;;;;;;;;;10473446;28;20430;-93
2022/04/19 15:38:58;;;;;;;6.05;2.92;;;;;;;;;;10474978;28;20483;-94
2022/04/19 15:44:00;;;;;;;5.63;3.50;;;;;;;;;;10473227;28;20422;-95
2022/04/19 15:49:02;;;;;;;3.90;3.10;;;;;;;;;;10475566;28;20514;-93
2022/04/19 15:54:06;;;;;;;5.10;3.10;;;;;;;;;;10475606;28;20410;-94
2022/04/19 15:59:11;;;;;;;4.63;3.03;;;;;;;;;;10478503;28;20444;-94
2022/04/19 16:04:14;;;;;;;4.78;3.10;;;;;;;;;;10479581;28;20417;-81
2022/04/19 16:09:24;;;;;;;4.27;2.93;;;;;;;;;;10493469;28;20417;-93
2022/04/19 16:14:26;;;;;;;3.53;3.22;;;;;;;;;;10493601;28;20457;-93
2022/04/19 16:25:01;;;;;;;3.60;2.95;;;;;;;;;;10424364;28;20410;-78
2022/04/19 16:30:05;;;;;;;3.33;2.70;;;;;;;;;;10471633;28;20426;-94
2022/04/19 16:35:08;;;;;;;5.80;3.60;;;;;;;;;;10467631;28;20413;-94
2022/04/19 16:40:13;;;;;;;4.47;3.00;;;;;;;;;;10467792;28;20889;-94
2022/04/19 16:45:16;;;;;;;4.20;3.10;;;;;;;;;;10469547;28;20412;-94
2022/04/19 16:50:18;;;;;;;3.33;2.80;;;;;;;;;;10467305;28;20525;-93
2022/04/19 16:55:22;;;;;;;6.07;3.40;;;;;;;;;;10476014;28;20422;-92
2022/04/19 17:00:25;;;;;;;6.75;3.50;;;;;;;;;;10475734;28;20555;-92
2022/04/19 17:05:28;;;;;;;4.90;3.07;;;;;;;;;;10469362;28;20454;-92
2022/04/19 17:10:31;;;;;;;6.68;3.58;;;;;;;;;;10448549;28;20474;-94
2022/04/19 17:15:33;;;;;;;4.90;3.50;;;;;;;;;;10469524;28;20422;-94
2022/04/19 17:20:35;;;;;;;5.63;3.77;;;;;;;;;;10472442;28;20854;-95
2022/04/19 17:25:38;;;;;;;5.40;3.53;;;;;;;;;;10470179;28;21044;-95
2022/04/19 17:30:41;;;;;;;5.20;3.50;;;;;;;;;;10472540;28;20453;-94
2022/04/19 17:35:43;;;;;;;5.35;3.78;;;;;;;;;;10511846;28;20434;-95
2022/04/19 17:40:47;;;;;;;6.85;3.80;;;;;;;;;;10483946;28;20458;-95
2022/04/19 17:45:50;;;;;;;4.95;3.33;;;;;;;;;;10519734;28;20438;-95
2022/04/19 17:56:32;;;;;;;4.95;3.63;;;;;;;;;;10517159;28;20392;-80
2022/04/19 18:01:35;;;;;;;5.32;3.28;;;;;;;;;;10524305;28;20431;-95
2022/04/19 18:06:38;;;;;;;8.07;4.07;;;;;;;;;;10502231;28;20414;-95
2022/04/19 18:11:41;;;;;;;5.70;4.30;;;;;;;;;;10513803;28;20461;-95
2022/04/19 18:16:43;;;;;;;8.35;4.68;;;;;;;;;;10534762;28;20818;-95
2022/04/19 18:27:06;;;;;;;8.10;5.70;;;;;;;;;;10473861;28;20399;-92
2022/04/19 18:32:08;;;;;;;10.93;5.35;;;;;;;;;;10498941;28;20441;-93
2022/04/19 18:37:13;;;;;;;8.15;5.28;;;;;;;;;;10490686;28;20441;-94
2022/04/19 18:42:19;;;;;;;6.55;4.78;;;;;;;;;;10476347;28;20414;-93
2022/04/19 18:47:24;;;;;;;8.00;4.67;;;;;;;;;;10478903;28;20447;-92
2022/04/19 18:52:29;;;;;;;7.32;5.35;;;;;;;;;;10473617;28;20434;-92
2022/04/19 18:57:39;;;;;;;9.80;4.90;;;;;;;;;;10491284;28;20392;-92
2022/04/19 19:02:46;;;;;;;8.77;5.30;;;;;;;;;;10514648;28;20743;-94
2022/04/19 19:07:52;;;;;;;9.25;5.30;;;;;;;;;;10467860;28;20418;-92
2022/04/19 19:13:01;;;;;;;11.03;5.93;;;;;;;;;;10470684;28;20412;-91
2022/04/19 19:18:07;;;;;;;9.98;6.88;;;;;;;;;;10473697;28;20408;-91
2022/04/19 19:23:14;;;;;;;8.52;6.45;;;;;;;;;;10452611;28;20481;-90
2022/04/19 19:28:23;;;;;;;10.30;6.43;;;;;;;;;;10464750;28;20423;-91
2022/04/19 19:33:28;;;;;;;10.97;7.00;;;;;;;;;;10462608;28;20908;-90
2022/04/19 19:38:35;;;;;;;12.93;7.90;;;;;;;;;;10465598;28;20496;-89
2022/04/19 19:43:48;;;;;;;10.27;7.10;;;;;;;;;;10467221;28;20496;-91
2022/04/19 19:48:54;;;;;;;8.85;7.00;;;;;;;;;;10471888;28;20426;-88
2022/04/19 19:53:58;;;;;;;9.77;6.70;;;;;;;;;;10469912;28;20518;-91
2022/04/19 19:59:09;;;;;;;9.20;7.35;;;;;;;;;;10481205;28;20496;-91
2022/04/19 20:04:17;;;;;;;10.35;7.35;;;;;;;;;;10447989;28;20415;-91
2022/04/19 20:09:24;;;;;;;13.30;7.45;;;;;;;;;;10474667;28;20454;-89
2022/04/19 20:14:36;;;;;;;11.70;7.30;;;;;;;;;;10467543;28;20415;-91
2022/04/19 20:19:45;;;;;;;12.07;7.67;;;;;;;;;;10472421;28;20418;-90
2022/04/19 20:24:52;;;;;;;10.52;7.78;;;;;;;;;;10467609;28;20440;-90
2022/04/19 20:30:00;;;;;;;15.35;8.55;;;;;;;;;;10462918;28;20412;-91
2022/04/19 20:35:06;;;;;;;13.57;7.87;;;;;;;;;;10470494;28;20469;-90
2022/04/19 20:40:12;;;;;;;13.10;7.97;;;;;;;;;;10459178;28;20469;-91
2022/04/19 20:45:22;;;;;;;11.63;7.78;;;;;;;;;;10473102;28;20404;-91
2022/04/19 20:50:29;;;;;;;11.90;8.00;;;;;;;;;;10463446;28;20912;-90
2022/04/19 20:55:35;;;;;;;13.17;7.70;;;;;;;;;;10465214;28;20406;-91
2022/04/19 21:00:43;;;;;;;15.20;8.00;;;;;;;;;;10476230;28;20419;-90
2022/04/19 21:05:48;;;;;;;11.33;8.17;;;;;;;;;;10470516;28;20424;-91
2022/04/19 21:10:54;;;;;;;12.30;8.70;;;;;;;;;;10470523;28;20432;-90
2022/04/19 21:16:08;;;;;;;12.40;8.85;;;;;;;;;;10465596;28;20435;-91
2022/04/19 21:21:11;;;;;;;12.53;8.30;;;;;;;;;;10473321;28;20895;-91
2022/04/19 21:26:15;;;;;;;12.27;8.02;;;;;;;;;;10474587;28;20518;-91
2022/04/19 21:31:19;;;;;;;13.27;8.20;;;;;;;;;;10471337;28;20775;-91
2022/04/19 21:36:21;;;;;;;11.90;8.20;;;;;;;;;;10479874;28;20481;-91
2022/04/19 21:41:23;;;;;;;10.00;7.47;;;;;;;;;;10534394;28;20435;-90
2022/04/19 21:46:28;;;;;;;12.38;7.38;;;;;;;;;;10484005;28;20495;-91
2022/04/19 21:51:30;;;;;;;12.80;7.15;;;;;;;;;;10475002;28;20497;-92
2022/04/19 21:56:32;;;;;;;14.87;7.10;;;;;;;;;;10488911;28;20419;-92
2022/04/19 22:01:35;;;;;;;11.33;6.83;;;;;;;;;;10500894;28;20502;-92
2022/04/19 22:06:38;;;;;;;10.23;6.53;;;;;;;;;;10506423;28;20428;-91
2022/04/19 22:11:40;;;;;;;11.55;6.60;;;;;;;;;;10531146;28;20456;-91
2022/04/19 22:16:43;;;;;;;9.47;5.93;;;;;;;;;;10457956;28;20531;-92
2022/04/19 22:21:46;;;;;;;7.15;5.30;;;;;;;;;;10531670;28;20418;-92
2022/04/19 22:26:48;;;;;;;9.93;6.00;;;;;;;;;;10468989;28;21060;-92
2022/04/19 22:31:51;;;;;;;10.52;6.57;;;;;;;;;;10466772;28;20428;-90
2022/04/19 22:36:53;;;;;;;10.63;6.28;;;;;;;;;;10477874;28;21045;-91
2022/04/19 22:41:55;;;;;;;9.77;6.00;;;;;;;;;;10479463;28;20922;-91
2022/04/19 22:46:58;;;;;;;8.17;5.40;;;;;;;;;;10471078;28;20435;-92
2022/04/19 22:52:00;;;;;;;8.25;5.32;;;;;;;;;;10462701;28;20492;-92
2022/04/19 22:57:02;;;;;;;11.77;6.32;;;;;;;;;;10484554;28;20502;-93
2022/04/19 23:02:06;;;;;;;7.28;5.57;;;;;;;;;;10471469;28;20498;-91
2022/04/19 23:07:08;;;;;;;7.00;5.57;;;;;;;;;;10477640;28;20437;-92
2022/04/19 23:12:10;;;;;;;9.55;5.65;;;;;;;;;;10469762;28;20466;-90
2022/04/19 23:17:14;;;;;;;7.95;5.53;;;;;;;;;;10472792;28;20467;-91
2022/04/19 23:22:16;;;;;;;9.98;6.28;;;;;;;;;;10447632;28;20488;-92
2022/04/19 23:32:39;;;;;;;7.80;5.67;;;;;;;;;;10480245;28;20428;-90
2022/04/19 23:37:41;;;;;;;9.95;5.53;;;;;;;;;;10461791;28;20766;-91
2022/04/19 23:42:44;;;;;;;7.38;5.55;;;;;;;;;;10489085;28;20758;-91
2022/04/19 23:47:48;;;;;;;10.20;5.75;;;;;;;;;;10470705;28;20506;-92
2022/04/19 23:52:49;;;;;;;8.90;5.33;;;;;;;;;;10505347;28;20521;-91
2022/04/19 23:57:51;;;;;;;7.13;5.13;;;;;;;;;;10530901;28;20393;-92
